createdAt,value
2017-09-06T00:02:32.961Z,1.80
2017-09-06T00:05:06.602Z,1.80
2017-09-06T00:07:40.305Z,1.50
2017-09-06T00:10:13.906Z,1.60
2017-09-06T00:12:47.476Z,1.80
2017-09-06T00:15:21.021Z,1.53
2017-09-06T00:17:54.687Z,1.70
2017-09-06T00:20:28.313Z,1.50
2017-09-06T00:23:01.914Z,1.97
2017-09-06T00:25:35.709Z,1.70
2017-09-06T00:28:09.317Z,1.83
2017-09-06T00:30:42.936Z,2.10
2017-09-06T00:33:16.606Z,1.90
2017-09-06T00:35:50.216Z,2.17
2017-09-06T00:38:24.021Z,1.73
2017-09-06T00:40:57.833Z,1.80
2017-09-06T00:43:31.413Z,1.87
2017-09-06T00:46:05.037Z,1.83
2017-09-06T00:48:38.843Z,1.77
2017-09-06T00:51:12.446Z,1.67
2017-09-06T00:53:46.049Z,1.80
2017-09-06T00:56:19.753Z,1.20
2017-09-06T00:58:53.356Z,1.50
2017-09-06T01:01:27.146Z,1.30
2017-09-06T01:04:00.687Z,1.77
2017-09-06T01:06:34.446Z,1.40
2017-09-06T01:09:08.049Z,1.60
2017-09-06T01:11:41.609Z,1.80
2017-09-06T01:14:15.354Z,1.80
2017-09-06T01:16:48.841Z,1.43
2017-09-06T01:19:22.519Z,1.60
2017-09-06T01:21:56.166Z,1.50
2017-09-06T01:24:29.858Z,1.67
2017-09-06T01:27:03.461Z,1.47
2017-09-06T01:29:37.161Z,1.33
2017-09-06T01:32:10.664Z,1.30
2017-09-06T01:34:44.270Z,1.50
2017-09-06T01:37:17.746Z,1.17
2017-09-06T01:39:51.564Z,1.73
2017-09-06T01:42:25.270Z,1.80
2017-09-06T01:44:58.973Z,1.40
2017-09-06T01:47:32.538Z,1.67
2017-09-06T01:50:06.178Z,1.87
2017-09-06T01:52:39.754Z,1.50
2017-09-06T01:55:13.279Z,1.60
2017-09-06T01:57:47.102Z,1.87
2017-09-06T02:00:20.887Z,1.80
2017-09-06T02:02:54.818Z,1.60
2017-09-06T02:05:28.502Z,1.50
2017-09-06T02:08:02.317Z,1.80
2017-09-06T02:10:36.016Z,1.60
2017-09-06T02:13:09.520Z,1.60
2017-09-06T02:15:43.277Z,1.70
2017-09-06T02:18:17.019Z,1.80
2017-09-06T02:20:50.618Z,1.60
2017-09-06T02:23:24.171Z,1.60
2017-09-06T02:25:58.506Z,1.60
2017-09-06T02:28:32.143Z,1.70
2017-09-06T02:31:05.739Z,1.60
2017-09-06T02:33:39.331Z,2.10
2017-09-06T02:36:12.926Z,1.70
2017-09-06T02:38:46.647Z,2.13
2017-09-06T02:41:20.443Z,3.40
2017-09-06T02:43:54.151Z,2.20
2017-09-06T02:46:27.724Z,2.30
2017-09-06T02:49:01.306Z,2.00
2017-09-06T02:51:34.860Z,1.60
2017-09-06T02:54:08.551Z,1.93
2017-09-06T02:56:42.153Z,1.83
2017-09-06T02:59:16.157Z,1.60
2017-09-06T03:01:50.687Z,1.80
2017-09-06T03:04:24.287Z,1.50
2017-09-06T03:06:57.891Z,1.70
2017-09-06T03:09:31.454Z,1.63
2017-09-06T03:12:05.091Z,1.53
2017-09-06T03:14:38.600Z,1.77
2017-09-06T03:17:12.083Z,1.90
2017-09-06T03:19:46.254Z,1.80
2017-09-06T03:22:20.832Z,1.67
2017-09-06T03:24:54.635Z,1.80
2017-09-06T03:27:28.326Z,1.47
2017-09-06T03:30:02.046Z,1.60
2017-09-06T03:32:35.714Z,1.70
2017-09-06T03:35:09.262Z,2.00
2017-09-06T03:37:42.946Z,1.70
2017-09-06T03:40:16.642Z,1.60
2017-09-06T03:42:50.355Z,1.77
2017-09-06T03:45:23.863Z,1.60
2017-09-06T03:47:57.559Z,1.40
2017-09-06T03:50:31.361Z,1.80
2017-09-06T03:53:04.942Z,2.13
2017-09-06T03:55:38.931Z,2.10
2017-09-06T03:58:12.518Z,2.23
2017-09-06T04:00:46.130Z,1.90
2017-09-06T04:03:19.762Z,1.60
2017-09-06T04:05:53.334Z,1.97
2017-09-06T04:08:26.923Z,2.00
2017-09-06T04:11:00.676Z,1.53
2017-09-06T04:13:34.238Z,2.43
2017-09-06T04:16:07.751Z,2.37
2017-09-06T04:18:41.370Z,1.30
2017-09-06T04:21:15.006Z,1.90
2017-09-06T04:23:49.476Z,1.70
2017-09-06T04:26:23.086Z,2.20
2017-09-06T04:28:56.822Z,1.60
2017-09-06T04:31:30.286Z,1.33
2017-09-06T04:34:03.890Z,1.73
2017-09-06T04:36:37.599Z,1.60
2017-09-06T04:39:11.062Z,1.67
2017-09-06T04:41:44.811Z,2.10
2017-09-06T04:44:18.368Z,1.77
2017-09-06T04:46:52.006Z,1.60
2017-09-06T04:49:25.574Z,1.67
2017-09-06T04:51:59.127Z,1.70
2017-09-06T04:54:32.813Z,2.27
2017-09-06T04:57:06.258Z,1.93
2017-09-06T04:59:39.964Z,1.83
2017-09-06T05:02:13.526Z,1.93
2017-09-06T05:04:47.213Z,1.20
2017-09-06T05:07:21.013Z,1.60
2017-09-06T05:09:54.615Z,1.37
2017-09-06T05:12:28.715Z,1.47
2017-09-06T05:15:02.432Z,1.40
2017-09-06T05:17:36.131Z,1.20
2017-09-06T05:20:09.730Z,1.47
2017-09-06T05:22:43.428Z,1.33
2017-09-06T05:25:17.069Z,1.40
2017-09-06T05:27:50.857Z,1.20
2017-09-06T05:30:24.539Z,1.20
2017-09-06T05:32:58.675Z,1.27
2017-09-06T05:35:32.463Z,1.10
2017-09-06T05:38:06.893Z,1.43
2017-09-06T05:40:40.352Z,1.37
2017-09-06T05:43:13.929Z,1.10
2017-09-06T05:45:47.724Z,1.10
2017-09-06T05:48:21.378Z,1.00
2017-09-06T05:50:54.955Z,1.20
2017-09-06T05:53:28.691Z,0.73
2017-09-06T05:56:02.262Z,1.10
2017-09-06T05:58:35.895Z,1.30
2017-09-06T06:01:09.391Z,2.10
2017-09-06T06:03:42.937Z,1.33
2017-09-06T06:06:16.597Z,1.00
2017-09-06T06:08:50.391Z,1.00
2017-09-06T06:11:24.187Z,1.17
2017-09-06T06:13:57.790Z,1.47
2017-09-06T06:16:31.407Z,1.10
2017-09-06T06:19:05.519Z,1.50
2017-09-06T06:21:39.222Z,1.00
2017-09-06T06:24:12.823Z,1.13
2017-09-06T06:26:47.134Z,1.17
2017-09-06T06:29:20.839Z,1.07
2017-09-06T06:31:54.410Z,1.13
2017-09-06T06:34:27.907Z,1.20
2017-09-06T06:37:01.640Z,1.40
2017-09-06T06:39:35.451Z,1.13
2017-09-06T06:42:09.047Z,1.00
2017-09-06T06:44:42.546Z,1.00
2017-09-06T06:47:16.250Z,1.10
2017-09-06T06:49:49.857Z,1.00
2017-09-06T06:52:23.450Z,1.13
2017-09-06T06:54:57.273Z,1.17
2017-09-06T06:57:31.062Z,1.20
2017-09-06T07:00:04.706Z,1.00
2017-09-06T07:02:38.260Z,1.20
2017-09-06T07:05:11.966Z,1.10
2017-09-06T07:07:46.293Z,1.30
2017-09-06T07:10:20.608Z,1.40
2017-09-06T07:12:54.294Z,0.83
2017-09-06T07:15:27.882Z,1.00
2017-09-06T07:18:02.332Z,0.90
2017-09-06T07:20:36.323Z,0.87
2017-09-06T07:23:10.147Z,0.93
2017-09-06T07:25:43.795Z,0.80
2017-09-06T07:28:17.343Z,0.73
2017-09-06T07:30:50.978Z,0.70
2017-09-06T07:33:24.450Z,0.90
2017-09-06T07:35:57.935Z,0.93
2017-09-06T07:38:31.543Z,0.70
2017-09-06T07:41:05.136Z,1.23
2017-09-06T07:43:38.822Z,1.00
2017-09-06T07:46:12.395Z,0.80
2017-09-06T07:48:46.018Z,0.70
2017-09-06T07:51:19.609Z,0.90
2017-09-06T07:53:53.256Z,1.00
2017-09-06T07:56:26.951Z,0.80
2017-09-06T07:59:00.556Z,0.80
2017-09-06T08:01:34.261Z,2.30
2017-09-06T08:04:08.054Z,0.80
2017-09-06T08:06:41.628Z,0.90
2017-09-06T08:09:15.271Z,0.80
2017-09-06T08:11:49.762Z,1.00
2017-09-06T08:14:23.555Z,0.90
2017-09-06T08:16:57.306Z,0.70
2017-09-06T08:19:31.000Z,0.90
2017-09-06T08:22:04.605Z,0.70
2017-09-06T08:24:38.294Z,0.90
2017-09-06T08:27:12.114Z,0.90
2017-09-06T08:29:45.922Z,0.90
2017-09-06T08:32:19.620Z,0.80
2017-09-06T08:34:53.174Z,1.27
2017-09-06T08:37:27.537Z,0.80
2017-09-06T08:40:01.195Z,0.80
2017-09-06T08:42:34.858Z,0.83
2017-09-06T08:45:08.931Z,1.10
2017-09-06T08:47:42.658Z,0.80
2017-09-06T08:50:16.361Z,0.90
2017-09-06T08:52:49.959Z,0.90
2017-09-06T08:55:23.455Z,0.80
2017-09-06T08:57:57.060Z,0.80
2017-09-06T09:00:30.619Z,0.90
2017-09-06T09:03:05.181Z,0.90
2017-09-06T09:05:38.898Z,1.03
2017-09-06T09:08:12.367Z,1.00
2017-09-06T09:10:46.078Z,0.70
2017-09-06T09:13:19.682Z,0.90
2017-09-06T09:15:53.283Z,0.80
2017-09-06T09:18:26.875Z,0.80
2017-09-06T09:21:00.587Z,1.10
2017-09-06T09:23:34.131Z,1.33
2017-09-06T09:26:07.834Z,1.00
2017-09-06T09:28:41.694Z,1.00
2017-09-06T09:31:15.301Z,0.83
2017-09-06T09:33:50.546Z,0.83
2017-09-06T09:36:24.244Z,1.13
2017-09-06T09:38:57.955Z,1.13
2017-09-06T09:41:31.751Z,1.27
2017-09-06T09:44:05.322Z,0.90
2017-09-06T09:46:39.154Z,0.80
2017-09-06T09:49:12.822Z,0.70
2017-09-06T09:51:46.467Z,0.93
2017-09-06T09:54:20.051Z,0.90
2017-09-06T09:56:53.655Z,1.07
2017-09-06T09:59:27.411Z,1.03
2017-09-06T10:02:01.032Z,0.93
2017-09-06T10:04:34.535Z,0.60
2017-09-06T10:07:08.462Z,0.80
2017-09-06T10:09:41.973Z,0.70
2017-09-06T10:12:15.568Z,0.97
2017-09-06T10:14:49.123Z,0.90
2017-09-06T10:17:22.881Z,0.87
2017-09-06T10:19:57.449Z,1.10
2017-09-06T10:22:31.004Z,0.70
2017-09-06T10:25:05.311Z,1.00
2017-09-06T10:27:39.026Z,0.90
2017-09-06T10:30:12.629Z,0.80
2017-09-06T10:32:46.758Z,0.90
2017-09-06T10:35:20.363Z,1.20
2017-09-06T10:37:54.135Z,1.20
2017-09-06T10:40:27.831Z,1.00
2017-09-06T10:43:01.314Z,1.03
2017-09-06T10:45:34.940Z,1.00
2017-09-06T10:48:08.447Z,1.10
2017-09-06T10:50:41.957Z,1.07
2017-09-06T10:53:15.501Z,0.90
2017-09-06T10:55:49.135Z,0.80
2017-09-06T10:58:22.636Z,1.00
2017-09-06T11:00:56.439Z,1.00
2017-09-06T11:03:30.863Z,1.33
2017-09-06T11:06:05.079Z,1.00
2017-09-06T11:08:38.531Z,1.20
2017-09-06T11:11:12.183Z,1.30
2017-09-06T11:13:45.971Z,0.90
2017-09-06T11:16:19.682Z,1.10
2017-09-06T11:18:53.365Z,1.13
2017-09-06T11:21:26.982Z,1.33
2017-09-06T11:24:01.104Z,1.10
2017-09-06T11:26:34.802Z,1.27
2017-09-06T11:29:08.408Z,0.97
2017-09-06T11:31:41.989Z,0.90
2017-09-06T11:34:15.603Z,1.17
2017-09-06T11:36:49.675Z,0.90
2017-09-06T11:39:23.327Z,1.30
2017-09-06T11:41:56.823Z,1.33
2017-09-06T11:44:30.543Z,1.60
2017-09-06T11:47:04.055Z,1.20
2017-09-06T11:49:38.395Z,1.77
2017-09-06T11:52:11.936Z,1.23
2017-09-06T11:54:45.843Z,1.50
2017-09-06T11:57:19.543Z,1.10
2017-09-06T11:59:53.151Z,1.60
2017-09-06T12:02:26.742Z,1.10
2017-09-06T12:05:00.331Z,1.30
2017-09-06T12:07:34.036Z,1.20
2017-09-06T12:10:07.511Z,1.40
2017-09-06T12:12:41.126Z,1.57
2017-09-06T12:15:14.759Z,1.73
2017-09-06T12:17:48.691Z,2.10
2017-09-06T12:20:22.472Z,1.70
2017-09-06T12:22:56.784Z,1.70
2017-09-06T12:25:30.399Z,1.77
2017-09-06T12:28:04.751Z,1.60
2017-09-06T12:30:38.408Z,1.37
2017-09-06T12:33:11.905Z,1.87
2017-09-06T12:35:45.823Z,2.80
2017-09-06T12:38:19.311Z,1.47
2017-09-06T12:40:53.015Z,1.77
2017-09-06T12:43:27.441Z,1.70
2017-09-06T12:46:01.757Z,1.87
2017-09-06T12:48:35.358Z,1.30
2017-09-06T12:51:08.867Z,1.07
2017-09-06T12:53:42.650Z,1.23
2017-09-06T12:56:16.319Z,1.40
2017-09-06T12:58:50.494Z,1.40
2017-09-06T13:01:24.087Z,1.30
2017-09-06T13:03:57.875Z,1.53
2017-09-06T13:06:31.581Z,1.90
2017-09-06T13:09:05.149Z,1.60
2017-09-06T13:11:38.775Z,1.20
2017-09-06T13:14:12.327Z,1.20
2017-09-06T13:16:46.642Z,1.30
2017-09-06T13:19:21.014Z,1.30
2017-09-06T13:21:54.754Z,2.10
2017-09-06T13:24:28.325Z,1.30
2017-09-06T13:27:02.123Z,1.40
2017-09-06T13:29:35.728Z,1.53
2017-09-06T13:32:09.427Z,1.40
2017-09-06T13:34:43.179Z,1.40
2017-09-06T13:37:17.031Z,1.80
2017-09-06T13:39:50.603Z,1.30
2017-09-06T13:42:25.164Z,1.40
2017-09-06T13:44:58.963Z,2.00
2017-09-06T13:47:32.522Z,3.30
2017-09-06T13:50:06.298Z,1.10
2017-09-06T13:52:39.970Z,1.20
2017-09-06T13:55:13.551Z,1.50
2017-09-06T13:57:47.169Z,1.77
2017-09-06T14:00:20.615Z,2.00
2017-09-06T14:02:54.235Z,1.53
2017-09-06T14:05:27.936Z,1.43
2017-09-06T14:08:01.543Z,1.00
2017-09-06T14:10:35.141Z,1.03
2017-09-06T14:13:08.759Z,1.63
2017-09-06T14:15:43.199Z,1.47
2017-09-06T14:18:17.719Z,1.50
2017-09-06T14:20:51.418Z,1.50
2017-09-06T14:23:24.999Z,1.67
2017-09-06T14:25:58.618Z,1.43
2017-09-06T14:28:32.218Z,1.53
2017-09-06T14:31:05.826Z,1.50
2017-09-06T14:33:40.138Z,1.50
2017-09-06T14:36:13.635Z,1.60
2017-09-06T14:38:47.134Z,1.20
2017-09-06T14:41:20.730Z,1.47
2017-09-06T14:43:54.241Z,1.63
2017-09-06T14:46:27.741Z,1.50
2017-09-06T14:49:01.439Z,1.43
2017-09-06T14:51:35.048Z,1.40
2017-09-06T14:54:08.645Z,2.67
2017-09-06T14:56:42.334Z,2.37
2017-09-06T14:59:16.784Z,1.40
2017-09-06T15:01:50.364Z,1.60
2017-09-06T15:04:23.875Z,1.33
2017-09-06T15:06:58.499Z,1.50
2017-09-06T15:09:33.019Z,1.20
2017-09-06T15:12:06.716Z,1.50
2017-09-06T15:14:40.532Z,1.60
2017-09-06T15:17:14.435Z,1.30
2017-09-06T15:19:47.995Z,1.27
2017-09-06T15:22:21.528Z,1.80
2017-09-06T15:24:55.070Z,1.93
2017-09-06T15:27:28.726Z,1.50
2017-09-06T15:30:02.536Z,1.30
2017-09-06T15:32:36.038Z,1.60
2017-09-06T15:35:09.737Z,1.40
2017-09-06T15:37:43.434Z,1.60
2017-09-06T15:40:17.040Z,1.50
2017-09-06T15:42:50.646Z,1.40
2017-09-06T15:45:24.151Z,1.83
2017-09-06T15:47:58.266Z,1.30
2017-09-06T15:50:32.367Z,1.60
2017-09-06T15:53:05.963Z,3.57
2017-09-06T15:55:40.280Z,1.40
2017-09-06T15:58:13.881Z,1.90
2017-09-06T16:00:47.374Z,1.50
2017-09-06T16:03:20.870Z,1.20
2017-09-06T16:05:54.478Z,1.50
2017-09-06T16:08:28.079Z,1.60
2017-09-06T16:11:01.639Z,1.23
2017-09-06T16:13:35.270Z,1.57
2017-09-06T16:16:08.879Z,1.50
2017-09-06T16:18:42.579Z,1.60
2017-09-06T16:21:16.905Z,1.40
2017-09-06T16:23:50.479Z,1.30
2017-09-06T16:26:24.086Z,1.13
2017-09-06T16:28:57.698Z,1.30
2017-09-06T16:31:31.931Z,1.07
2017-09-06T16:34:05.625Z,1.30
2017-09-06T16:36:39.125Z,1.40
2017-09-06T16:39:12.724Z,1.70
2017-09-06T16:41:46.229Z,1.40
2017-09-06T16:44:19.820Z,1.30
2017-09-06T16:46:53.410Z,1.30
2017-09-06T16:49:27.015Z,1.83
2017-09-06T16:52:00.624Z,1.90
2017-09-06T16:54:34.151Z,1.60
2017-09-06T16:57:07.815Z,1.33
2017-09-06T16:59:41.635Z,1.30
2017-09-06T17:02:15.330Z,1.83
2017-09-06T17:04:49.056Z,1.60
2017-09-06T17:07:22.740Z,1.23
2017-09-06T17:09:56.438Z,1.87
2017-09-06T17:12:29.999Z,1.57
2017-09-06T17:15:03.539Z,1.63
2017-09-06T17:17:37.107Z,1.90
2017-09-06T17:20:10.640Z,2.23
2017-09-06T17:22:44.982Z,3.13
2017-09-06T17:25:18.663Z,2.87
2017-09-06T17:27:52.290Z,1.70
2017-09-06T17:30:26.759Z,1.80
2017-09-06T17:33:00.283Z,1.90
2017-09-06T17:35:33.884Z,1.53
2017-09-06T17:38:08.378Z,1.50
2017-09-06T17:40:41.954Z,1.23
2017-09-06T17:43:16.319Z,1.17
2017-09-06T17:45:50.022Z,2.03
2017-09-06T17:48:23.475Z,2.13
2017-09-06T17:50:57.870Z,1.90
2017-09-06T17:53:31.378Z,2.87
2017-09-06T17:56:05.146Z,1.50
2017-09-06T17:58:38.743Z,1.67
2017-09-06T18:01:13.065Z,1.80
2017-09-06T18:03:46.663Z,1.50
2017-09-06T18:06:20.363Z,1.60
2017-09-06T18:08:53.966Z,1.50
2017-09-06T18:11:27.462Z,1.50
2017-09-06T18:14:01.158Z,1.40
2017-09-06T18:16:34.762Z,1.40
2017-09-06T18:19:09.187Z,1.73
2017-09-06T18:21:42.783Z,1.33
2017-09-06T18:24:16.278Z,1.20
2017-09-06T18:26:50.023Z,1.40
2017-09-06T18:29:23.691Z,1.60
2017-09-06T18:31:57.598Z,1.60
2017-09-06T18:34:31.308Z,1.60
2017-09-06T18:37:05.007Z,2.10
2017-09-06T18:39:38.820Z,1.30
2017-09-06T18:42:12.511Z,1.80
2017-09-06T18:44:46.006Z,1.47
2017-09-06T18:47:19.610Z,2.07
2017-09-06T18:49:53.187Z,2.47
2017-09-06T18:52:26.831Z,1.97
2017-09-06T18:55:00.407Z,1.50
2017-09-06T18:57:34.115Z,1.97
2017-09-06T19:00:07.723Z,1.87
2017-09-06T19:02:41.399Z,2.57
2017-09-06T19:05:15.391Z,1.70
2017-09-06T19:07:49.011Z,1.80
2017-09-06T19:10:22.939Z,1.50
2017-09-06T19:12:56.642Z,2.93
2017-09-06T19:15:30.330Z,1.60
2017-09-06T19:18:05.994Z,1.90
2017-09-06T19:20:39.694Z,2.00
2017-09-06T19:23:13.406Z,1.63
2017-09-06T19:25:46.961Z,1.40
2017-09-06T19:28:21.325Z,2.07
2017-09-06T19:30:55.127Z,1.80
2017-09-06T19:33:29.012Z,1.87
2017-09-06T19:36:02.635Z,1.63
2017-09-06T19:38:36.166Z,2.00
2017-09-06T19:41:09.639Z,1.83
2017-09-06T19:43:43.133Z,1.73
2017-09-06T19:46:16.841Z,1.90
2017-09-06T19:48:50.391Z,1.77
2017-09-06T19:51:24.053Z,2.13
2017-09-06T19:53:58.343Z,1.50
2017-09-06T19:56:31.974Z,1.57
2017-09-06T19:59:05.606Z,1.40
2017-09-06T20:01:39.271Z,1.87
2017-09-06T20:04:13.062Z,2.17
2017-09-06T20:06:46.576Z,2.57
2017-09-06T20:09:20.252Z,2.40
2017-09-06T20:11:53.922Z,1.93
2017-09-06T20:14:27.673Z,2.30
2017-09-06T20:17:01.331Z,1.83
2017-09-06T20:19:34.966Z,2.40
2017-09-06T20:22:08.574Z,1.77
2017-09-06T20:24:42.378Z,2.13
2017-09-06T20:27:16.119Z,1.97
2017-09-06T20:29:49.700Z,1.93
2017-09-06T20:32:23.487Z,2.40
2017-09-06T20:34:57.192Z,2.03
2017-09-06T20:37:31.001Z,2.00
2017-09-06T20:40:05.625Z,2.30
2017-09-06T20:42:39.125Z,2.67
2017-09-06T20:45:12.610Z,2.37
2017-09-06T20:47:46.055Z,2.23
2017-09-06T20:50:19.703Z,2.13
2017-09-06T20:52:53.302Z,2.20
2017-09-06T20:55:27.035Z,2.00
2017-09-06T20:58:00.738Z,2.00
2017-09-06T21:00:34.530Z,2.57
2017-09-06T21:03:08.174Z,2.23
2017-09-06T21:05:41.831Z,2.27
2017-09-06T21:08:15.431Z,2.17
2017-09-06T21:10:48.987Z,2.37
2017-09-06T21:13:22.741Z,1.77
2017-09-06T21:15:57.031Z,1.90
2017-09-06T21:18:30.762Z,2.87
2017-09-06T21:21:04.562Z,3.03
2017-09-06T21:23:38.368Z,2.60
2017-09-06T21:26:12.023Z,2.10
2017-09-06T21:28:45.770Z,2.10
2017-09-06T21:31:19.486Z,2.53
2017-09-06T21:33:53.079Z,2.10
2017-09-06T21:36:26.811Z,2.27
2017-09-06T21:39:00.383Z,2.63
2017-09-06T21:41:33.982Z,2.20
2017-09-06T21:44:07.587Z,2.40
2017-09-06T21:46:42.207Z,2.30
2017-09-06T21:49:16.014Z,2.20
2017-09-06T21:51:50.028Z,2.50
2017-09-06T21:54:23.628Z,2.40
2017-09-06T21:56:57.290Z,2.00
2017-09-06T21:59:31.031Z,2.07
2017-09-06T22:02:04.836Z,1.80
2017-09-06T22:04:38.535Z,2.20
2017-09-06T22:07:12.348Z,2.20
2017-09-06T22:09:46.150Z,2.00
2017-09-06T22:12:19.759Z,2.90
2017-09-06T22:14:53.356Z,1.90
2017-09-06T22:17:27.018Z,2.13
2017-09-06T22:20:00.600Z,2.67
2017-09-06T22:22:34.260Z,2.53
2017-09-06T22:25:07.976Z,2.73
2017-09-06T22:27:42.476Z,2.20
2017-09-06T22:30:16.222Z,2.67
2017-09-06T22:33:24.818Z,2.63
2017-09-06T22:35:59.128Z,2.10
2017-09-06T22:38:32.727Z,2.10
2017-09-06T22:41:07.155Z,2.30
2017-09-06T22:43:40.844Z,3.70
2017-09-06T22:46:14.661Z,2.40
2017-09-06T22:48:49.180Z,2.57
2017-09-06T22:51:22.780Z,3.00
2017-09-06T22:53:56.286Z,2.97
2017-09-06T22:56:29.974Z,1.77
2017-09-06T22:59:03.662Z,2.30
2017-09-06T23:01:37.291Z,2.23
2017-09-06T23:04:10.891Z,2.73
2017-09-06T23:06:44.683Z,3.30
2017-09-06T23:09:18.258Z,2.83
2017-09-06T23:11:51.990Z,2.20
2017-09-06T23:14:25.763Z,2.90
2017-09-06T23:16:59.595Z,1.80
2017-09-06T23:19:33.175Z,2.97
2017-09-06T23:22:06.903Z,2.97
2017-09-06T23:24:40.613Z,2.30
2017-09-06T23:27:14.207Z,1.70
2017-09-06T23:29:47.807Z,2.10
2017-09-06T23:32:21.406Z,2.63
2017-09-06T23:34:55.807Z,2.07
2017-09-06T23:37:29.527Z,2.03
2017-09-06T23:40:03.171Z,2.80
2017-09-06T23:42:36.938Z,2.17
2017-09-06T23:45:10.511Z,2.77
2017-09-06T23:47:44.138Z,2.60
2017-09-06T23:50:17.842Z,2.43
2017-09-06T23:52:51.961Z,2.20
2017-09-06T23:55:25.659Z,2.20
2017-09-06T23:57:59.241Z,2.90
